This is the latest recevied weather packets stored in our database for station/object YN1JLX-13. If no packets are shown the sender has not sent any weather packets the latest 10 day(s).
| Time | Temp. | Humidity | Pressure | Rain* | Wind** | Luminosity | Snow |
|---|---|---|---|---|---|---|---|
| 1778103962 | 28.33° C | 33% | 1008 hPa | 0 mm | - | - | - |
| 1778103362 | 28.89° C | 33% | 1008 hPa | 0 mm | - | - | - |
| 1778102761 | 29.44° C | 33% | 1008 hPa | 0 mm | - | - | - |
| 1778102161 | 30.56° C | 33% | 1008 hPa | 0 mm | - | - | - |
| 1778101560 | 28.33° C | 35% | 1008 hPa | 0 mm | - | - | - |
| 1778100960 | 29.44° C | 35% | 1008 hPa | 0 mm | - | - | - |
| 1778100360 | 29.44° C | 35% | 1008 hPa | 0 mm | - | - | - |
| 1778099759 | 28.33° C | 36% | 1008 hPa | 0 mm | - | - | - |
| 1778099159 | 28.33° C | 35% | 1009 hPa | 0 mm | - | - | - |
| 1778098559 | 28.89° C | 35% | 1009 hPa | 0 mm | - | - | - |
| 1778097959 | 28.89° C | 35% | 1009 hPa | 0 mm | - | - | - |
| 1778097358 | 30° C | 34% | 1009 hPa | 0 mm | - | - | - |
| 1778096758 | 30° C | 34% | 1009 hPa | 0 mm | - | - | - |
| 1778096157 | 31.11° C | 34% | 1009 hPa | 0 mm | - | - | - |
| 1778095557 | 29.44° C | 39% | 1010 hPa | 0 mm | - | - | - |
| 1778094957 | 28.33° C | 39% | 1010 hPa | 0 mm | - | - | - |
| 1778094357 | 28.89° C | 39% | 1010 hPa | 0 mm | - | - | - |
| 1778093756 | 28.89° C | 39% | 1010 hPa | 0 mm | - | - | - |
| 1778093156 | 28.89° C | 40% | 1010 hPa | 0 mm | - | - | - |
| 1778092556 | 28.89° C | 40% | 1010 hPa | 0 mm | - | - | - |
| 1778091955 | 27.22° C | 46% | 1011 hPa | 0 mm | - | - | - |
| 1778091355 | 27.22° C | 46% | 1011 hPa | 0 mm | - | - | - |
| 1778090754 | 27.22° C | 46% | 1011 hPa | 0 mm | - | - | - |
| 1778090153 | 27.78° C | 46% | 1011 hPa | 0 mm | - | - | - |
| 1778089553 | 26.11° C | 46% | 1011 hPa | 0 mm | - | - | - |
* Rain latest hour (hover to see other rain measurements)
** Current wind speed in m/s (hover to see current wind gust speed)